Latest Weather Observations for Ferny Creek

IDV60801

Issued at 9:35 pm EST Thursday 18 September 2014 (issued every 30 minutes, with the page automatically refreshed every 10 minutes)

About weather observations | Map of weather stations | Latest weather observations for VIC | Other Formats
Station Details ID: 086266 Name: FERNY CREEK Lat: -37.87 Lon: 145.35 Height: 512.9 m
Data from the previous 72 hours. | See also: Recent months at Ferny Creek
Date/Time
EST
Temp
°C
App
Temp
°C
Dew
Point
Rel
Hum
%
Delta-T
°C
Wind Press
QNH
hPa
Press
MSL
hPa
Rain
since 9 am
mm
Dir
 
Spd
km/h
Gust
km/h
Spd
kts
Gust
kts
18/09:30pm 5.7 3.7 2.5 80 1.3 SW 2 4 1 2 1024.1 1024.5 0.6
18/09:00pm 5.7 3.3 2.0 77 1.5 WSW 4 9 2 5 1024.0 1024.4 0.6
18/08:30pm 6.2 4.2 2.5 77 1.6 SW 2 7 1 4 1023.8 1024.2 0.6
18/08:00pm 6.1 4.1 2.2 76 1.6 SW 2 7 1 4 1023.8 1024.2 0.6
18/07:30pm 6.3 3.9 2.2 75 1.7 SSW 4 9 2 5 1023.7 1024.1 0.6
18/07:00pm 6.3 3.9 2.4 76 1.6 W 4 9 2 5 1023.4 1023.7 0.6
18/06:30pm 6.6 3.8 2.3 74 1.8 WSW 6 17 3 9 1023.1 1023.4 0.6
18/06:00pm 7.0 4.5 3.6 79 1.5 WSW 6 13 3 7 1022.9 1023.3 0.6
18/05:30pm 7.4 4.8 4.0 79 1.5 WSW 7 19 4 10 1022.6 1023.0 0.6
18/05:00pm 7.9 5.5 4.5 79 1.5 WSW 6 19 3 10 1022.3 1022.7 0.6
18/04:30pm 7.4 5.1 4.7 83 1.2 WSW 6 13 3 7 1022.1 1022.5 0.6
18/04:00pm 7.9 4.9 3.9 76 1.8 WSW 9 24 5 13 1021.9 1022.3 0.6
18/03:30pm 9.4 6.4 4.0 69 2.4 WSW 9 22 5 12 1021.6 1021.9 0.6
18/03:00pm 9.8 7.0 5.2 73 2.1 WSW 9 24 5 13 1021.7 1022.0 0.6
18/02:30pm 9.3 6.2 3.7 68 2.5 SW 9 26 5 14 1021.6 1021.9 0.6
18/02:00pm 8.1 5.9 5.4 83 1.2 SSW 6 15 3 8 1021.6 1021.9 0.6
18/01:30pm 8.7 6.2 4.9 77 1.7 WSW 7 13 4 7 1021.5 1021.8 0.6
18/01:00pm 7.9 4.6 4.8 81 1.4 SW 11 28 6 15 1021.7 1022.0 0.6
18/12:30pm 8.8 6.3 6.6 86 1.1 WSW 9 19 5 10 1021.6 1021.9 0.6
18/12:00pm 7.3 5.1 5.3 87 0.9 W 6 13 3 7 1021.8 1022.1 0.6
18/11:30am 7.1 4.7 5.3 88 0.8 W 7 17 4 9 1021.7 1022.0 0.6
18/11:00am 7.0 4.7 5.9 93 0.5 WSW 7 22 4 12 1021.8 1022.1 0.6
18/10:30am 6.2 4.0 5.5 95 0.3 WSW 6 9 3 5 1021.8 1022.1 0.6
18/10:00am 5.9 3.4 5.0 94 0.4 W 7 15 4 8 1021.7 1022.0 0.4
18/09:30am 5.8 3.6 5.1 95 0.3 W 6 19 3 10 1021.6 1021.9 0.0
18/09:00am 5.6 3.4 5.2 97 0.2 W 6 13 3 7 1021.6 1021.9 8.4
18/08:30am 5.8 4.0 5.5 98 0.1 W 4 13 2 7 1021.2 1021.5 8.2
18/08:00am 5.1 2.8 4.7 97 0.2 W 6 11 3 6 1021.1 1021.4 8.0
18/07:30am 4.6 2.6 4.2 97 0.2 W 4 9 2 5 1020.6 1021.0 8.0
18/07:00am 4.8 3.2 4.4 97 0.2 WNW 2 13 1 7 1020.2 1020.6 6.6
18/06:30am 4.7 3.1 4.3 97 0.2 W 2 6 1 3 1019.9 1020.2 6.6
18/06:00am 4.7 2.7 4.3 97 0.2 W 4 9 2 5 1019.6 1019.9 6.6
18/05:30am 4.7 2.7 4.3 97 0.2 W 4 9 2 5 1019.3 1019.6 6.6
18/05:00am 4.6 2.6 4.2 97 0.2 W 4 9 2 5 1019.0 1019.3 6.4
18/04:30am 4.6 2.6 4.2 97 0.2 W 4 11 2 6 1018.6 1019.0 6.4
18/04:00am 4.5 2.1 4.1 97 0.2 W 6 13 3 7 1018.4 1018.7 6.4
18/03:30am 4.5 2.4 4.1 97 0.2 W 4 7 2 4 1018.2 1018.5 6.2
18/03:00am 4.3 1.8 3.9 97 0.2 W 6 13 3 7 1018.2 1018.5 6.0
18/02:30am 4.3 2.2 3.7 96 0.3 W 4 7 2 4 1018.0 1018.3 4.8
18/02:00am 4.1 1.9 3.5 96 0.3 W 4 7 2 4 1018.2 1018.5 4.4
18/01:30am 4.1 1.9 3.4 95 0.3 W 4 7 2 4 1018.3 1018.6 4.0
18/01:00am 4.2 2.0 3.5 95 0.3 W 4 7 2 4 1018.4 1018.7 4.0
18/12:30am 4.4 2.3 3.7 95 0.3 WNW 4 9 2 5 1018.4 1018.7 4.0
18/12:00am 4.4 2.2 3.5 94 0.4 W 4 6 2 3 1018.4 1018.7 4.0
 
Date/Time
EST
Temp
°C
App
Temp
°C
Dew
Point
Rel
Hum
%
Delta-T
°C
Wind Press
QNH
hPa
Press
MSL
hPa
Rain
since 9 am
mm
Dir
 
Spd
km/h
Gust
km/h
Spd
kts
Gust
kts
17/11:30pm 4.4 2.2 3.4 93 0.4 W 4 7 2 4 1018.2 1018.5 3.8
17/11:00pm 4.4 2.2 3.4 93 0.4 W 4 7 2 4 1018.2 1018.5 3.8
17/10:30pm 4.5 2.3 3.5 93 0.4 W 4 7 2 4 1018.2 1018.5 3.8
17/10:00pm 4.6 2.4 3.4 92 0.5 W 4 9 2 5 1018.1 1018.4 3.8
17/09:30pm 4.7 2.2 3.5 92 0.5 W 6 9 3 5 1017.9 1018.2 3.8
17/09:00pm 4.6 2.5 3.7 94 0.4 W 4 9 2 5 1017.8 1018.1 3.8
17/08:30pm 4.6 2.8 3.6 93 0.4 WSW 2 4 1 2 1017.6 1017.9 3.8
17/08:00pm 4.3 2.1 3.1 92 0.5 W 4 7 2 4 1017.4 1017.7 3.8
17/07:30pm 5.0 2.3 3.8 92 0.5 W 7 22 4 12 1017.2 1017.5 3.8
17/07:00pm 5.3 2.6 3.5 88 0.8 W 7 19 4 10 1016.9 1017.1 3.4
17/06:30pm 5.5 2.3 3.3 86 0.9 WSW 9 26 5 14 1016.5 1016.8 3.4
17/06:00pm 5.4 2.9 3.6 88 0.8 WSW 6 19 3 10 1016.2 1016.5 3.4
17/05:30pm 5.9 3.1 3.4 84 1.1 W 7 22 4 12 1015.9 1016.2 3.4
17/05:00pm 5.8 3.2 4.3 90 0.7 W 7 17 4 9 1015.4 1015.7 3.4
17/04:30pm 6.0 3.6 5.3 95 0.3 W 7 20 4 11 1014.9 1015.1 3.2
17/04:00pm 5.5 2.6 4.8 95 0.3 W 9 20 5 11 1014.6 1014.9 3.0
17/03:30pm 5.7 2.8 4.8 94 0.4 W 9 22 5 12 1014.5 1014.8 2.8
17/03:00pm 7.2 5.3 4.9 85 1.0 W 4 9 2 5 1013.8 1014.1 0.4
17/02:30pm 8.2 5.0 3.1 70 2.2 W 9 20 5 11 1013.7 1014.0 0.4
17/02:00pm 10.1 7.4 3.6 64 2.9 WSW 7 24 4 13 1013.3 1013.5 0.4
17/01:30pm 10.2 7.8 5.4 72 2.3 WSW 7 20 4 11 1013.2 1013.4 0.4
17/01:00pm 7.6 4.8 5.2 85 1.1 W 9 28 5 15 1013.3 1013.5 0.4
17/12:30pm 9.1 5.8 4.5 73 2.1 WSW 11 30 6 16 1013.0 1013.2 0.0
17/12:00pm 10.1 7.5 6.3 77 1.8 W 9 26 5 14 1012.9 1013.1 0.0
17/11:30am 9.1 6.6 4.5 73 2.1 W 7 24 4 13 1013.0 1013.2 0.0
17/11:00am 7.9 5.7 5.5 85 1.1 W 6 15 3 8 1013.2 1013.4 0.0
17/10:30am 8.7 6.6 6.5 86 1.0 WSW 7 17 4 9 1013.1 1013.3 0.0
17/10:00am 7.3 5.0 5.9 91 0.7 W 7 20 4 11 1013.1 1013.3 0.0
17/09:30am 6.7 4.7 6.1 96 0.3 W 6 11 3 6 1013.1 1013.3 0.0
17/09:00am 6.6 5.0 6.2 97 0.2 W 4 7 2 4 1013.1 1013.3 4.6
17/08:30am 6.4 4.7 6.1 98 0.1 WNW 4 9 2 5 1013.0 1013.2 4.6
17/08:00am 6.1 4.4 5.7 97 0.2 W 4 6 2 3 1012.9 1013.1 4.6
17/07:30am 6.1 4.4 5.7 97 0.2 W 4 7 2 4 1012.4 1012.7 4.4
17/07:00am 6.0 4.6 5.6 97 0.2 W 2 6 1 3 1012.2 1012.5 4.0
17/06:30am 5.9 4.5 5.5 97 0.2 WSW 2 7 1 4 1012.2 1012.5 3.8
17/06:00am 5.9 4.5 5.5 97 0.2 WSW 2 6 1 3 1012.1 1012.4 3.6
17/05:30am 5.9 3.7 5.5 97 0.2 NW 6 22 3 12 1012.0 1012.3 3.2
17/05:00am 6.0 4.6 5.4 96 0.3 WSW 2 6 1 3 1012.0 1012.3 2.6
17/04:30am 6.1 3.9 5.5 96 0.3 W 6 13 3 7 1012.0 1012.3 2.6
17/04:00am 6.2 4.8 5.6 96 0.3 WNW 2 6 1 3 1012.0 1012.3 2.6
17/03:30am 6.2 4.4 5.6 96 0.3 WNW 4 13 2 7 1011.9 1012.1 2.6
17/03:00am 6.2 4.4 5.6 96 0.3 W 4 7 2 4 1012.1 1012.4 2.6
17/02:30am 6.3 4.5 5.6 95 0.3 NW 4 13 2 7 1012.1 1012.4 2.6
17/02:00am 6.3 4.5 5.6 95 0.3 WNW 4 7 2 4 1012.2 1012.5 2.6
17/01:30am 6.3 5.3 5.6 95 0.3 CALM 0 4 0 2 1012.4 1012.7 2.6
17/01:00am 6.3 4.9 5.6 95 0.3 WNW 2 4 1 2 1012.7 1012.9 2.6
17/12:30am 6.4 5.1 5.8 96 0.3 NW 2 4 1 2 1012.8 1013.0 2.6
17/12:00am 6.5 4.8 5.8 95 0.3 NW 4 6 2 3 1012.8 1013.0 2.6
 
Date/Time
EST
Temp
°C
App
Temp
°C
Dew
Point
Rel
Hum
%
Delta-T
°C
Wind Press
QNH
hPa
Press
MSL
hPa
Rain
since 9 am
mm
Dir
 
Spd
km/h
Gust
km/h
Spd
kts
Gust
kts
16/11:30pm 6.8 4.8 6.1 95 0.3 WNW 6 7 3 4 1012.9 1013.1 2.6
16/11:00pm 6.9 5.6 6.2 95 0.3 WNW 2 4 1 2 1013.3 1013.5 2.6
16/10:30pm 6.5 4.7 5.6 94 0.4 W 4 6 2 3 1013.2 1013.4 2.6
16/10:00pm 6.5 4.7 5.6 94 0.4 W 4 7 2 4 1013.2 1013.4 2.6
16/09:30pm 6.6 4.8 5.4 92 0.5 W 4 13 2 7 1013.1 1013.3 2.6
16/09:00pm 7.0 4.9 5.8 92 0.6 W 6 15 3 8 1013.1 1013.3 2.6
16/08:30pm 7.3 5.7 6.4 94 0.4 W 4 13 2 7 1013.0 1013.2 2.6
16/08:00pm 7.7 5.6 6.8 94 0.4 WSW 7 17 4 9 1012.9 1013.1 2.6
16/07:30pm 7.9 6.1 7.0 94 0.4 W 6 11 3 6 1012.5 1012.8 2.6
16/07:00pm 8.1 6.3 7.3 95 0.4 W 6 20 3 11 1012.3 1012.6 2.6
16/06:30pm 8.3 6.0 7.5 95 0.4 WSW 9 26 5 14 1012.0 1012.3 2.6
16/06:00pm 8.4 6.2 7.8 96 0.3 WSW 9 24 5 13 1011.8 1012.0 2.6
16/05:30pm 8.4 6.2 7.8 96 0.3 SW 9 20 5 11 1011.4 1011.6 2.6
16/05:00pm 8.6 6.8 8.0 96 0.3 WSW 7 17 4 9 1011.1 1011.3 2.4
16/04:30pm 8.5 5.5 7.7 95 0.4 WSW 13 26 7 14 1010.8 1011.0 2.4
16/04:00pm 8.5 6.3 7.9 96 0.3 WSW 9 19 5 10 1010.7 1010.9 2.4
16/03:30pm 8.6 6.1 8.2 97 0.2 WSW 11 20 6 11 1010.2 1010.4 2.2
16/03:00pm 9.2 6.8 8.7 97 0.3 WSW 11 30 6 16 1009.7 1009.9 2.2
16/02:30pm 9.8 7.9 9.2 96 0.3 WSW 9 32 5 17 1009.3 1009.5 1.6
16/02:00pm 10.1 8.3 9.3 95 0.4 WSW 9 20 5 11 1009.2 1009.4 0.0
16/01:30pm 10.0 8.8 9.4 96 0.3 W 6 13 3 7 1009.1 1009.3 0.0
16/01:00pm 10.0 9.2 9.5 97 0.3 WSW 4 11 2 6 1009.3 1009.5 0.0
16/12:30pm 9.8 8.5 9.3 97 0.3 WSW 6 15 3 8 1009.3 1009.5 0.0
16/12:00pm 9.9 8.7 9.4 97 0.3 WSW 6 11 3 6 1009.5 1009.7 0.0
16/11:30am 10.0 9.2 9.5 97 0.3 W 4 15 2 8 1009.4 1009.6 0.0
16/11:00am 9.8 8.9 9.3 97 0.3 WNW 4 13 2 7 1009.6 1009.8 0.0
16/10:30am 9.8 8.9 9.3 97 0.3 WNW 4 11 2 6 1009.5 1009.7 0.0
16/10:00am 9.8 8.9 9.3 97 0.3 WNW 4 7 2 4 1009.5 1009.7 0.0
16/09:30am 9.6 8.7 9.1 97 0.3 W 4 7 2 4 1009.4 1009.6 0.0
16/09:00am 9.4 8.8 8.9 97 0.3 W 2 7 1 4 1009.4 1009.6 0.0
16/08:30am 9.2 8.5 8.7 97 0.3 WNW 2 6 1 3 1009.3 1009.5 0.0
16/08:00am 8.8 7.7 8.4 97 0.2 W 4 11 2 6 1009.1 1009.3 0.0
16/07:30am 8.6 7.0 8.2 97 0.2 WNW 6 11 3 6 1008.7 1008.9 0.0
16/07:00am 8.3 6.1 7.9 97 0.2 WNW 9 15 5 8 1008.2 1008.4 0.0
16/06:30am 8.0 6.0 7.2 95 0.4 WNW 7 9 4 5 1007.9 1008.1 0.0
16/06:00am 9.2 7.5 5.8 79 1.6 NW 4 13 2 7 1007.7 1007.9 0.0
16/05:30am 10.1 9.2 6.1 76 1.9 CALM 0 2 0 1 1007.4 1007.6 0.0
16/05:00am 10.3 8.9 5.5 72 2.3 NE 2 4 1 2 1007.3 1007.5 0.0
16/04:30am 10.8 9.8 5.6 70 2.5 CALM 0 0 0 0 1007.3 1007.5 0.0
16/04:00am 10.1 8.4 6.1 76 1.9 ESE 4 4 2 2 1007.2 1007.4 0.0
16/03:30am 10.6 9.3 6.0 73 2.2 ENE 2 4 1 2 1007.2 1007.4 0.0
16/03:00am 10.7 9.9 6.3 74 2.1 CALM 0 0 0 0 1007.3 1007.5 0.0
16/02:30am 10.7 9.9 6.3 74 2.1 CALM 0 0 0 0 1007.6 1007.8 0.0
16/02:00am 10.7 9.5 6.6 76 2.0 NE 2 6 1 3 1007.7 1007.9 0.0
16/01:30am 10.9 10.1 6.5 74 2.1 CALM 0 2 0 1 1008.3 1008.5 0.0
16/01:00am 11.2 10.4 6.5 73 2.3 CALM 0 2 0 1 1008.6 1008.7 0.0
16/12:30am 11.7 10.6 5.3 65 3.0 CALM 0 4 0 2 1008.7 1008.9 0.0
16/12:00am 12.6 11.5 5.1 60 3.6 CALM 0 0 0 0 1008.9 1009.1 0.0
 
Date/Time
EST
Temp
°C
App
Temp
°C
Dew
Point
Rel
Hum
%
Delta-T
°C
Wind Press
QNH
hPa
Press
MSL
hPa
Rain
since 9 am
mm
Dir
 
Spd
km/h
Gust
km/h
Spd
kts
Gust
kts
15/11:30pm 12.5 11.0 5.0 60 3.6 NE 2 4 1 2 1008.9 1009.1 0.0
15/11:00pm 13.2 10.9 4.9 57 4.0 NE 6 11 3 6 1009.0 1009.2 0.0
15/10:30pm 13.0 10.9 5.7 61 3.5 NE 6 11 3 6 1009.4 1009.6 0.0
15/10:00pm 13.0 10.0 6.1 63 3.4 ENE 11 17 6 9 1009.4 1009.6 0.0

Other Formats:

Comma delimited format used in spreadsheet applications
http://www.bom.gov.au/fwo/IDV60801/IDV60801.94872.axf

JavaScript Object Notation format (JSON) in row-major order
http://www.bom.gov.au/fwo/IDV60801/IDV60801.94872.json